sensor_id;sensor_type;location;lat;lon;timestamp;pressure;altitude;pressure_sealevel;temperature;humidity
54556;BME280;57291;37.520;15.106;2022-09-02T00:01:44;100757.66;;;25.72;55.14
54556;BME280;57291;37.520;15.106;2022-09-02T00:04:21;100764.00;;;25.65;55.51
54556;BME280;57291;37.520;15.106;2022-09-02T00:06:51;100757.25;;;25.63;55.80
54556;BME280;57291;37.520;15.106;2022-09-02T00:09:21;100764.81;;;25.55;55.96
54556;BME280;57291;37.520;15.106;2022-09-02T00:11:49;100756.84;;;25.50;55.97
54556;BME280;57291;37.520;15.106;2022-09-02T00:14:22;100750.91;;;25.48;55.80
54556;BME280;57291;37.520;15.106;2022-09-02T00:16:50;100751.31;;;25.54;54.85
54556;BME280;57291;37.520;15.106;2022-09-02T00:19:20;100754.47;;;25.63;54.69
54556;BME280;57291;37.520;15.106;2022-09-02T00:21:48;100758.06;;;25.63;55.10
54556;BME280;57291;37.520;15.106;2022-09-02T00:24:16;100755.25;;;25.60;55.20
54556;BME280;57291;37.520;15.106;2022-09-02T00:27:23;100760.03;;;25.63;55.32
54556;BME280;57291;37.520;15.106;2022-09-02T00:29:51;100760.44;;;25.61;55.50
54556;BME280;57291;37.520;15.106;2022-09-02T00:32:19;100756.88;;;25.61;55.67
54556;BME280;57291;37.520;15.106;2022-09-02T00:34:46;100764.44;;;25.60;55.73
54556;BME280;57291;37.520;15.106;2022-09-02T00:37:23;100773.16;;;25.55;55.91
54556;BME280;57291;37.520;15.106;2022-09-02T00:40:01;100761.25;;;25.55;55.70
54556;BME280;57291;37.520;15.106;2022-09-02T00:42:29;100767.59;;;25.55;55.68
54556;BME280;57291;37.520;15.106;2022-09-02T00:44:58;100784.69;;;25.54;56.07
54556;BME280;57291;37.520;15.106;2022-09-02T00:47:25;100788.66;;;25.45;56.17
54556;BME280;57291;37.520;15.106;2022-09-02T00:49:53;100782.28;;;25.41;56.13
54556;BME280;57291;37.520;15.106;2022-09-02T00:52:38;100779.09;;;25.32;57.01
54556;BME280;57291;37.520;15.106;2022-09-02T00:55:15;100773.09;;;25.23;57.04
54556;BME280;57291;37.520;15.106;2022-09-02T00:57:47;100779.44;;;25.16;57.22
54556;BME280;57291;37.520;15.106;2022-09-02T01:00:25;100771.88;;;25.13;57.56
54556;BME280;57291;37.520;15.106;2022-09-02T01:03:06;100772.28;;;25.12;57.26
54556;BME280;57291;37.520;15.106;2022-09-02T01:05:36;100771.09;;;25.13;57.16
54556;BME280;57291;37.520;15.106;2022-09-02T01:08:11;100768.69;;;25.11;57.38
54556;BME280;57291;37.520;15.106;2022-09-02T01:10:40;100765.50;;;25.09;57.51
54556;BME280;57291;37.520;15.106;2022-09-02T01:13:12;100775.03;;;25.08;57.48
54556;BME280;57291;37.520;15.106;2022-09-02T01:15:45;100767.06;;;25.07;57.20
54556;BME280;57291;37.520;15.106;2022-09-02T01:18:17;100773.44;;;25.07;57.04
54556;BME280;57291;37.520;15.106;2022-09-02T01:20:45;100772.63;;;25.07;57.47
54556;BME280;57291;37.520;15.106;2022-09-02T01:23:14;100776.22;;;25.07;56.71
54556;BME280;57291;37.520;15.106;2022-09-02T01:25:44;100779.41;;;25.06;56.94
54556;BME280;57291;37.520;15.106;2022-09-02T01:28:15;100783.75;;;25.10;57.24
54556;BME280;57291;37.520;15.106;2022-09-02T01:30:47;100771.84;;;25.06;57.51
54556;BME280;57291;37.520;15.106;2022-09-02T01:33:16;100777.41;;;25.02;56.91
54556;BME280;57291;37.520;15.106;2022-09-02T01:35:44;100790.09;;;25.03;57.19
54556;BME280;57291;37.520;15.106;2022-09-02T01:38:13;100798.84;;;25.06;57.10
54556;BME280;57291;37.520;15.106;2022-09-02T01:40:41;100797.66;;;25.07;57.00
54556;BME280;57291;37.520;15.106;2022-09-02T01:43:12;100798.06;;;25.05;57.48
54556;BME280;57291;37.520;15.106;2022-09-02T01:45:42;100804.78;;;25.00;57.48
54556;BME280;57291;37.520;15.106;2022-09-02T01:48:12;100798.84;;;24.95;57.88
54556;BME280;57291;37.520;15.106;2022-09-02T01:50:59;100798.81;;;24.91;57.57
54556;BME280;57291;37.520;15.106;2022-09-02T01:53:28;100801.19;;;24.93;57.75
54556;BME280;57291;37.520;15.106;2022-09-02T01:55:57;100794.84;;;24.92;57.99
54556;BME280;57291;37.520;15.106;2022-09-02T01:58:27;100783.72;;;24.89;57.45
54556;BME280;57291;37.520;15.106;2022-09-02T02:00:54;100794.03;;;24.88;58.03
54556;BME280;57291;37.520;15.106;2022-09-02T02:03:24;100788.47;;;24.85;57.88
54556;BME280;57291;37.520;15.106;2022-09-02T02:05:56;100795.59;;;24.82;58.11
54556;BME280;57291;37.520;15.106;2022-09-02T02:08:25;100801.16;;;24.82;58.43
54556;BME280;57291;37.520;15.106;2022-09-02T02:10:52;100805.94;;;24.82;58.68
54556;BME280;57291;37.520;15.106;2022-09-02T02:13:21;100804.31;;;24.80;58.64
54556;BME280;57291;37.520;15.106;2022-09-02T02:15:49;100795.19;;;24.80;58.68
54556;BME280;57291;37.520;15.106;2022-09-02T02:18:16;100802.34;;;24.81;58.78
54556;BME280;57291;37.520;15.106;2022-09-02T02:20:44;100790.03;;;24.78;59.04
54556;BME280;57291;37.520;15.106;2022-09-02T02:23:12;100793.97;;;24.77;58.82
54556;BME280;57291;37.520;15.106;2022-09-02T02:25:39;100786.03;;;24.76;58.51
54556;BME280;57291;37.520;15.106;2022-09-02T02:28:07;100779.69;;;24.75;59.14
54556;BME280;57291;37.520;15.106;2022-09-02T02:30:36;100767.00;;;24.78;58.48
54556;BME280;57291;37.520;15.106;2022-09-02T02:33:05;100765.41;;;24.77;58.73
54556;BME280;57291;37.520;15.106;2022-09-02T02:35:32;100765.41;;;24.80;58.37
54556;BME280;57291;37.520;15.106;2022-09-02T02:38:09;100781.72;;;24.86;58.54
54556;BME280;57291;37.520;15.106;2022-09-02T02:40:54;100790.84;;;24.86;58.31
54556;BME280;57291;37.520;15.106;2022-09-02T02:43:34;100792.06;;;24.89;57.85
54556;BME280;57291;37.520;15.106;2022-09-02T02:46:13;100787.69;;;24.88;58.42
54556;BME280;57291;37.520;15.106;2022-09-02T02:49:04;100786.88;;;24.91;58.13
54556;BME280;57291;37.520;15.106;2022-09-02T02:51:52;100788.88;;;24.94;58.45
54556;BME280;57291;37.520;15.106;2022-09-02T02:54:36;100794.84;;;24.96;58.31
54556;BME280;57291;37.520;15.106;2022-09-02T02:57:07;100794.44;;;24.94;58.57
54556;BME280;57291;37.520;15.106;2022-09-02T02:59:39;100785.31;;;24.90;59.00
54556;BME280;57291;37.520;15.106;2022-09-02T03:03:06;100778.97;;;24.93;58.97
54556;BME280;57291;37.520;15.106;2022-09-02T03:05:41;100775.75;;;24.91;59.11
54556;BME280;57291;37.520;15.106;2022-09-02T03:08:22;100776.94;;;24.86;59.16
54556;BME280;57291;37.520;15.106;2022-09-02T03:10:56;100770.97;;;24.84;58.98
54556;BME280;57291;37.520;15.106;2022-09-02T03:13:31;100780.50;;;24.83;59.32
54556;BME280;57291;37.520;15.106;2022-09-02T03:16:42;100779.72;;;24.79;58.97
54556;BME280;57291;37.520;15.106;2022-09-02T03:19:42;100776.50;;;24.77;59.57
54556;BME280;57291;37.520;15.106;2022-09-02T03:22:35;100785.25;;;24.75;59.58
54556;BME280;57291;37.520;15.106;2022-09-02T03:29:22;100787.25;;;24.78;59.39
54556;BME280;57291;37.520;15.106;2022-09-02T03:31:57;100769.75;;;24.74;59.06
54556;BME280;57291;37.520;15.106;2022-09-02T03:38:30;100772.94;;;24.73;59.71
54556;BME280;57291;37.520;15.106;2022-09-02T03:41:09;100780.84;;;24.71;59.55
54556;BME280;57291;37.520;15.106;2022-09-02T03:43:54;100776.88;;;24.68;59.38
54556;BME280;57291;37.520;15.106;2022-09-02T03:46:49;100774.09;;;24.65;59.56
54556;BME280;57291;37.520;15.106;2022-09-02T03:49:40;100783.59;;;24.60;60.30
54556;BME280;57291;37.520;15.106;2022-09-02T03:52:26;100794.69;;;24.56;60.21
54556;BME280;57291;37.520;15.106;2022-09-02T03:55:11;100798.66;;;24.55;60.31
54556;BME280;57291;37.520;15.106;2022-09-02T03:58:02;100803.78;;;24.50;59.93
54556;BME280;57291;37.520;15.106;2022-09-02T04:00:36;100803.75;;;24.46;60.48
54556;BME280;57291;37.520;15.106;2022-09-02T04:03:04;100789.06;;;24.46;60.34
54556;BME280;57291;37.520;15.106;2022-09-02T04:05:32;100800.56;;;24.44;59.99
54556;BME280;57291;37.520;15.106;2022-09-02T04:08:00;100805.72;;;24.42;60.51
54556;BME280;57291;37.520;15.106;2022-09-02T04:10:28;100812.44;;;24.41;60.08
54556;BME280;57291;37.520;15.106;2022-09-02T04:12:56;100799.72;;;24.40;60.69
54556;BME280;57291;37.520;15.106;2022-09-02T04:15:23;100801.72;;;24.40;60.35
54556;BME280;57291;37.520;15.106;2022-09-02T04:17:52;100800.13;;;24.39;60.72
54556;BME280;57291;37.520;15.106;2022-09-02T04:20:20;100805.69;;;24.39;60.84
54556;BME280;57291;37.520;15.106;2022-09-02T04:22:47;100810.03;;;24.36;61.11
54556;BME280;57291;37.520;15.106;2022-09-02T04:25:15;100816.78;;;24.35;61.07
54556;BME280;57291;37.520;15.106;2022-09-02T04:27:45;100821.91;;;24.37;60.71
54556;BME280;57291;37.520;15.106;2022-09-02T04:30:13;100819.16;;;24.37;60.84
54556;BME280;57291;37.520;15.106;2022-09-02T04:32:43;100812.03;;;24.39;60.30
54556;BME280;57291;37.520;15.106;2022-09-02T04:35:12;100806.47;;;24.39;60.64
54556;BME280;57291;37.520;15.106;2022-09-02T04:37:40;100812.44;;;24.41;60.18
54556;BME280;57291;37.520;15.106;2022-09-02T04:40:08;100818.41;;;24.43;60.54
54556;BME280;57291;37.520;15.106;2022-09-02T04:42:35;100830.34;;;24.47;60.54
54556;BME280;57291;37.520;15.106;2022-09-02T04:45:07;100836.41;;;24.64;60.56
54556;BME280;57291;37.520;15.106;2022-09-02T04:47:37;100832.28;;;25.20;58.92
54556;BME280;57291;37.520;15.106;2022-09-02T04:50:06;100842.00;;;26.01;56.44
54556;BME280;57291;37.520;15.106;2022-09-02T04:52:35;100843.09;;;26.82;54.64
54556;BME280;57291;37.520;15.106;2022-09-02T04:55:03;100853.44;;;27.63;52.81
54556;BME280;57291;37.520;15.106;2022-09-02T04:57:33;100855.25;;;28.39;50.69
54556;BME280;57291;37.520;15.106;2022-09-02T05:00:06;100844.38;;;29.20;48.69
54556;BME280;57291;37.520;15.106;2022-09-02T05:02:34;100841.31;;;29.92;47.12
54556;BME280;57291;37.520;15.106;2022-09-02T05:05:02;100840.13;;;30.60;44.42
54556;BME280;57291;37.520;15.106;2022-09-02T05:07:37;100854.81;;;30.88;43.41
54556;BME280;57291;37.520;15.106;2022-09-02T05:10:05;100850.63;;;30.96;43.21
54556;BME280;57291;37.520;15.106;2022-09-02T05:12:37;100842.75;;;31.64;42.68
54556;BME280;57291;37.520;15.106;2022-09-02T05:15:09;100846.34;;;32.46;40.69
54556;BME280;57291;37.520;15.106;2022-09-02T05:17:37;100854.31;;;32.77;39.03
54556;BME280;57291;37.520;15.106;2022-09-02T05:20:07;100861.09;;;33.21;38.75
54556;BME280;57291;37.520;15.106;2022-09-02T05:22:36;100859.78;;;33.90;37.78
54556;BME280;57291;37.520;15.106;2022-09-02T05:25:06;100866.06;;;34.19;37.63
54556;BME280;57291;37.520;15.106;2022-09-02T05:27:36;100856.28;;;34.68;35.65
54556;BME280;57291;37.520;15.106;2022-09-02T05:30:05;100867.94;;;35.01;35.69
54556;BME280;57291;37.520;15.106;2022-09-02T05:32:34;100859.13;;;35.21;34.83
54556;BME280;57291;37.520;15.106;2022-09-02T05:35:05;100868.94;;;35.69;33.16
54556;BME280;57291;37.520;15.106;2022-09-02T05:37:34;100859.28;;;35.98;32.75
54556;BME280;57291;37.520;15.106;2022-09-02T05:40:04;100863.91;;;35.02;34.83
54556;BME280;57291;37.520;15.106;2022-09-02T05:42:35;100867.50;;;35.24;34.55
54556;BME280;57291;37.520;15.106;2022-09-02T05:45:04;100867.50;;;35.56;33.94
54556;BME280;57291;37.520;15.106;2022-09-02T05:47:35;100866.06;;;34.98;35.34
54556;BME280;57291;37.520;15.106;2022-09-02T05:50:03;100866.22;;;35.57;34.04
54556;BME280;57291;37.520;15.106;2022-09-02T05:52:34;100864.94;;;35.98;33.61
54556;BME280;57291;37.520;15.106;2022-09-02T05:55:03;100873.16;;;35.56;33.85
54556;BME280;57291;37.520;15.106;2022-09-02T05:57:34;100865.03;;;35.76;34.03
54556;BME280;57291;37.520;15.106;2022-09-02T06:00:05;100872.75;;;35.13;35.78
54556;BME280;57291;37.520;15.106;2022-09-02T06:02:40;100875.38;;;36.29;33.66
54556;BME280;57291;37.520;15.106;2022-09-02T06:05:12;100876.84;;;36.61;32.93
54556;BME280;57291;37.520;15.106;2022-09-02T06:07:46;100890.72;;;36.00;33.81
54556;BME280;57291;37.520;15.106;2022-09-02T06:10:18;100888.78;;;35.47;35.38
54556;BME280;57291;37.520;15.106;2022-09-02T06:12:45;100888.19;;;35.53;34.82
54556;BME280;57291;37.520;15.106;2022-09-02T06:15:13;100896.50;;;35.87;34.71
54556;BME280;57291;37.520;15.106;2022-09-02T06:17:42;100900.41;;;35.90;34.60
54556;BME280;57291;37.520;15.106;2022-09-02T06:20:10;100898.31;;;36.22;33.69
54556;BME280;57291;37.520;15.106;2022-09-02T06:22:40;100900.59;;;36.54;34.19
54556;BME280;57291;37.520;15.106;2022-09-02T06:25:08;100911.44;;;36.74;34.05
54556;BME280;57291;37.520;15.106;2022-09-02T06:27:36;100912.16;;;36.29;34.72
54556;BME280;57291;37.520;15.106;2022-09-02T06:30:04;100905.88;;;36.25;34.41
54556;BME280;57291;37.520;15.106;2022-09-02T06:32:32;100900.91;;;35.88;35.50
54556;BME280;57291;37.520;15.106;2022-09-02T06:35:03;100907.53;;;35.54;36.59
54556;BME280;57291;37.520;15.106;2022-09-02T06:37:33;100909.88;;;35.03;37.96
54556;BME280;57291;37.520;15.106;2022-09-02T06:40:02;100916.09;;;35.19;37.18
54556;BME280;57291;37.520;15.106;2022-09-02T06:42:30;100910.66;;;35.56;37.11
54556;BME280;57291;37.520;15.106;2022-09-02T06:45:24;100921.88;;;36.09;36.43
54556;BME280;57291;37.520;15.106;2022-09-02T06:47:54;100916.31;;;35.87;36.35
54556;BME280;57291;37.520;15.106;2022-09-02T06:50:21;100907.56;;;34.88;37.88
54556;BME280;57291;37.520;15.106;2022-09-02T06:52:49;100909.16;;;34.54;39.47
54556;BME280;57291;37.520;15.106;2022-09-02T06:55:17;100912.84;;;34.29;40.51
54556;BME280;57291;37.520;15.106;2022-09-02T06:57:45;100919.75;;;33.90;41.68
54556;BME280;57291;37.520;15.106;2022-09-02T07:00:14;100920.66;;;34.00;40.82
54556;BME280;57291;37.520;15.106;2022-09-02T07:02:42;100933.00;;;34.41;40.04
54556;BME280;57291;37.520;15.106;2022-09-02T07:05:32;100932.75;;;34.48;40.54
54556;BME280;57291;37.520;15.106;2022-09-02T07:07:59;100942.41;;;34.94;39.36
54556;BME280;57291;37.520;15.106;2022-09-02T07:10:27;100950.56;;;34.58;40.20
54556;BME280;57291;37.520;15.106;2022-09-02T07:12:55;100965.19;;;34.78;39.99
54556;BME280;57291;37.520;15.106;2022-09-02T07:15:23;100967.00;;;35.29;39.32
54556;BME280;57291;37.520;15.106;2022-09-02T07:17:50;100962.06;;;35.42;38.64
54556;BME280;57291;37.520;15.106;2022-09-02T07:20:32;100962.66;;;34.93;39.75
54556;BME280;57291;37.520;15.106;2022-09-02T07:23:01;100960.47;;;34.97;40.14
54556;BME280;57291;37.520;15.106;2022-09-02T07:25:32;100968.59;;;35.30;38.97
54556;BME280;57291;37.520;15.106;2022-09-02T07:27:59;100969.38;;;35.30;38.58
54556;BME280;57291;37.520;15.106;2022-09-02T07:30:31;100967.59;;;35.23;37.80
54556;BME280;57291;37.520;15.106;2022-09-02T07:33:10;100972.66;;;35.29;39.12
54556;BME280;57291;37.520;15.106;2022-09-02T07:35:42;100965.81;;;35.17;38.73
54556;BME280;57291;37.520;15.106;2022-09-02T07:38:12;100968.75;;;34.91;37.14
54556;BME280;57291;37.520;15.106;2022-09-02T07:40:41;100967.28;;;34.87;38.61
54556;BME280;57291;37.520;15.106;2022-09-02T07:43:10;100979.00;;;34.98;37.62
54556;BME280;57291;37.520;15.106;2022-09-02T07:45:39;100984.72;;;34.85;36.75
54556;BME280;57291;37.520;15.106;2022-09-02T07:48:13;100991.59;;;34.24;36.60
54556;BME280;57291;37.520;15.106;2022-09-02T07:50:43;100983.66;;;34.31;37.07
54556;BME280;57291;37.520;15.106;2022-09-02T07:53:14;100983.16;;;34.71;35.60
54556;BME280;57291;37.520;15.106;2022-09-02T07:55:44;100984.41;;;35.49;34.88
54556;BME280;57291;37.520;15.106;2022-09-02T07:58:13;100986.69;;;35.63;35.70
54556;BME280;57291;37.520;15.106;2022-09-02T08:00:42;100981.94;;;35.29;36.02
54556;BME280;57291;37.520;15.106;2022-09-02T08:03:10;100992.00;;;35.08;36.20
54556;BME280;57291;37.520;15.106;2022-09-02T08:05:44;100993.03;;;34.54;37.42
54556;BME280;57291;37.520;15.106;2022-09-02T08:08:14;101000.81;;;34.37;38.61
54556;BME280;57291;37.520;15.106;2022-09-02T08:10:42;101006.38;;;34.02;37.20
54556;BME280;57291;37.520;15.106;2022-09-02T08:13:09;101005.22;;;34.00;38.00
54556;BME280;57291;37.520;15.106;2022-09-02T08:15:37;101002.06;;;33.98;37.57
54556;BME280;57291;37.520;15.106;2022-09-02T08:18:05;101001.91;;;33.76;38.91
54556;BME280;57291;37.520;15.106;2022-09-02T08:20:34;101008.00;;;33.32;39.00
54556;BME280;57291;37.520;15.106;2022-09-02T08:23:03;101015.38;;;33.13;37.60
54556;BME280;57291;37.520;15.106;2022-09-02T08:25:44;101015.34;;;33.01;38.40
54556;BME280;57291;37.520;15.106;2022-09-02T08:28:11;101012.53;;;32.84;40.50
54556;BME280;57291;37.520;15.106;2022-09-02T08:30:39;101007.81;;;32.49;41.37
54556;BME280;57291;37.520;15.106;2022-09-02T08:33:06;101010.81;;;31.85;42.37
54556;BME280;57291;37.520;15.106;2022-09-02T08:35:33;101005.34;;;31.42;43.15
54556;BME280;57291;37.520;15.106;2022-09-02T08:38:00;101015.28;;;31.03;44.11
54556;BME280;57291;37.520;15.106;2022-09-02T08:40:35;101003.31;;;30.75;45.28
54556;BME280;57291;37.520;15.106;2022-09-02T08:43:30;101017.09;;;30.43;46.59
54556;BME280;57291;37.520;15.106;2022-09-02T08:45:59;101009.53;;;30.12;47.40
54556;BME280;57291;37.520;15.106;2022-09-02T08:48:51;101019.25;;;29.74;47.52
54556;BME280;57291;37.520;15.106;2022-09-02T08:51:30;101011.44;;;29.58;47.88
54556;BME280;57291;37.520;15.106;2022-09-02T08:54:14;101010.44;;;29.41;49.09
54556;BME280;57291;37.520;15.106;2022-09-02T08:56:45;101014.94;;;29.31;49.98
54556;BME280;57291;37.520;15.106;2022-09-02T08:59:18;101006.69;;;29.20;50.59
54556;BME280;57291;37.520;15.106;2022-09-02T09:01:53;101006.63;;;29.24;50.91
54556;BME280;57291;37.520;15.106;2022-09-02T09:07:42;101001.00;;;29.28;51.88
54556;BME280;57291;37.520;15.106;2022-09-02T09:15:53;101006.81;;;29.44;51.00
54556;BME280;57291;37.520;15.106;2022-09-02T09:18:37;101010.34;;;29.52;51.13
54556;BME280;57291;37.520;15.106;2022-09-02T09:21:08;101012.25;;;29.58;49.89
54556;BME280;57291;37.520;15.106;2022-09-02T09:23:38;101010.72;;;29.50;50.21
54556;BME280;57291;37.520;15.106;2022-09-02T09:26:16;101002.88;;;29.38;50.97
54556;BME280;57291;37.520;15.106;2022-09-02T09:28:47;100997.72;;;29.36;51.47
54556;BME280;57291;37.520;15.106;2022-09-02T09:31:17;100998.50;;;29.37;51.98
54556;BME280;57291;37.520;15.106;2022-09-02T09:34:01;100998.09;;;29.35;50.98
54556;BME280;57291;37.520;15.106;2022-09-02T09:36:50;100992.09;;;29.36;50.61
54556;BME280;57291;37.520;15.106;2022-09-02T09:41:48;100972.84;;;29.42;50.86
54556;BME280;57291;37.520;15.106;2022-09-02T09:47:08;100975.56;;;29.49;50.96
54556;BME280;57291;37.520;15.106;2022-09-02T09:49:41;100974.97;;;29.31;51.16
54556;BME280;57291;37.520;15.106;2022-09-02T09:52:08;100990.53;;;29.32;52.11
54556;BME280;57291;37.520;15.106;2022-09-02T09:54:36;100983.44;;;29.58;51.27
54556;BME280;57291;37.520;15.106;2022-09-02T09:57:16;100977.81;;;29.58;51.30
54556;BME280;57291;37.520;15.106;2022-09-02T09:59:47;100962.47;;;29.73;50.14
54556;BME280;57291;37.520;15.106;2022-09-02T10:02:25;100960.97;;;29.65;51.05
54556;BME280;57291;37.520;15.106;2022-09-02T10:04:54;100968.22;;;29.62;52.36
54556;BME280;57291;37.520;15.106;2022-09-02T10:07:38;100973.31;;;29.67;51.20
54556;BME280;57291;37.520;15.106;2022-09-02T10:10:18;100981.31;;;29.69;51.14
54556;BME280;57291;37.520;15.106;2022-09-02T10:12:47;100975.25;;;29.74;50.23
54556;BME280;57291;37.520;15.106;2022-09-02T10:18:26;101000.44;;;30.05;49.33
54556;BME280;57291;37.520;15.106;2022-09-02T10:24:40;100986.56;;;29.94;51.38
54556;BME280;57291;37.520;15.106;2022-09-02T10:27:15;100988.78;;;30.06;50.18
54556;BME280;57291;37.520;15.106;2022-09-02T10:32:26;100981.56;;;29.82;50.89
54556;BME280;57291;37.520;15.106;2022-09-02T10:35:10;100991.50;;;29.86;50.87
54556;BME280;57291;37.520;15.106;2022-09-02T10:40:45;100967.28;;;29.73;52.91
54556;BME280;57291;37.520;15.106;2022-09-02T10:43:27;100969.63;;;29.74;52.30
54556;BME280;57291;37.520;15.106;2022-09-02T10:45:59;100975.34;;;29.94;52.84
54556;BME280;57291;37.520;15.106;2022-09-02T10:54:22;100971.25;;;30.02;52.76
54556;BME280;57291;37.520;15.106;2022-09-02T10:59:32;100980.91;;;29.98;54.65
54556;BME280;57291;37.520;15.106;2022-09-02T11:02:25;100972.50;;;29.98;52.99
54556;BME280;57291;37.520;15.106;2022-09-02T11:05:04;100978.09;;;29.71;54.53
54556;BME280;57291;37.520;15.106;2022-09-02T11:10:22;100980.69;;;29.54;55.96
54556;BME280;57291;37.520;15.106;2022-09-02T11:13:03;100994.22;;;29.59;57.17
54556;BME280;57291;37.520;15.106;2022-09-02T11:15:54;100993.31;;;29.70;56.89
54556;BME280;57291;37.520;15.106;2022-09-02T11:18:57;100989.97;;;29.82;57.56
54556;BME280;57291;37.520;15.106;2022-09-02T11:24:18;100983.47;;;29.88;60.25
54556;BME280;57291;37.520;15.106;2022-09-02T11:30:11;100986.13;;;30.26;58.23
54556;BME280;57291;37.520;15.106;2022-09-02T11:35:22;100998.13;;;30.27;59.22
54556;BME280;57291;37.520;15.106;2022-09-02T11:40:28;100994.84;;;30.05;58.35
54556;BME280;57291;37.520;15.106;2022-09-02T11:43:07;100998.38;;;29.82;58.45
54556;BME280;57291;37.520;15.106;2022-09-02T11:48:45;101003.41;;;29.63;59.79
54556;BME280;57291;37.520;15.106;2022-09-02T11:51:50;101010.06;;;29.73;59.82
54556;BME280;57291;37.520;15.106;2022-09-02T11:54:22;101017.19;;;29.81;58.81
54556;BME280;57291;37.520;15.106;2022-09-02T11:56:56;101009.38;;;29.65;58.85
54556;BME280;57291;37.520;15.106;2022-09-02T12:02:36;101006.59;;;29.28;61.01
54556;BME280;57291;37.520;15.106;2022-09-02T12:21:27;100985.66;;;29.74;59.10
54556;BME280;57291;37.520;15.106;2022-09-02T12:31:51;100991.75;;;28.93;60.45
54556;BME280;57291;37.520;15.106;2022-09-02T12:36:56;100987.66;;;29.05;60.32
54556;BME280;57291;37.520;15.106;2022-09-02T12:50:07;100977.69;;;29.38;58.97
54556;BME280;57291;37.520;15.106;2022-09-02T12:52:45;100981.91;;;29.53;58.62
54556;BME280;57291;37.520;15.106;2022-09-02T12:55:20;100974.03;;;29.41;58.75
54556;BME280;57291;37.520;15.106;2022-09-02T12:57:53;100974.78;;;29.45;58.57
54556;BME280;57291;37.520;15.106;2022-09-02T13:05:57;100975.31;;;29.36;57.71
54556;BME280;57291;37.520;15.106;2022-09-02T13:28:59;100972.81;;;29.45;58.13
54556;BME280;57291;37.520;15.106;2022-09-02T13:31:35;100971.34;;;29.34;57.83
54556;BME280;57291;37.520;15.106;2022-09-02T13:34:11;100969.84;;;29.26;57.77
54556;BME280;57291;37.520;15.106;2022-09-02T13:36:44;100958.50;;;29.06;59.25
54556;BME280;57291;37.520;15.106;2022-09-02T13:39:26;100962.28;;;29.23;58.69
54556;BME280;57291;37.520;15.106;2022-09-02T13:41:54;100953.84;;;29.26;57.85
54556;BME280;57291;37.520;15.106;2022-09-02T13:44:27;100944.63;;;29.29;57.57
54556;BME280;57291;37.520;15.106;2022-09-02T13:47:04;100947.91;;;29.20;57.94
54556;BME280;57291;37.520;15.106;2022-09-02T13:49:40;100947.78;;;29.31;58.01
54556;BME280;57291;37.520;15.106;2022-09-02T13:52:15;100954.50;;;29.37;57.69
54556;BME280;57291;37.520;15.106;2022-09-02T13:54:50;100953.94;;;29.19;57.64
54556;BME280;57291;37.520;15.106;2022-09-02T13:57:23;100944.72;;;29.18;58.72
54556;BME280;57291;37.520;15.106;2022-09-02T13:59:54;100951.94;;;29.19;57.63
54556;BME280;57291;37.520;15.106;2022-09-02T14:02:34;100951.28;;;29.05;58.84
54556;BME280;57291;37.520;15.106;2022-09-02T14:05:14;100945.28;;;29.06;58.90
54556;BME280;57291;37.520;15.106;2022-09-02T14:07:48;100954.94;;;28.98;59.09
54556;BME280;57291;37.520;15.106;2022-09-02T14:10:18;100958.50;;;29.02;58.94
54556;BME280;57291;37.520;15.106;2022-09-02T14:12:47;100953.25;;;29.08;59.13
54556;BME280;57291;37.520;15.106;2022-09-02T14:15:21;100953.72;;;28.99;60.63
54556;BME280;57291;37.520;15.106;2022-09-02T14:18:15;100956.00;;;29.11;58.01
54556;BME280;57291;37.520;15.106;2022-09-02T14:21:09;100956.19;;;28.93;60.02
54556;BME280;57291;37.520;15.106;2022-09-02T14:23:48;100953.19;;;28.73;60.63
54556;BME280;57291;37.520;15.106;2022-09-02T14:26:43;100961.91;;;28.83;61.46
54556;BME280;57291;37.520;15.106;2022-09-02T14:29:14;100965.53;;;28.80;61.96
54556;BME280;57291;37.520;15.106;2022-09-02T14:31:43;100974.66;;;28.84;60.77
54556;BME280;57291;37.520;15.106;2022-09-02T14:34:40;100958.19;;;28.93;60.17
54556;BME280;57291;37.520;15.106;2022-09-02T14:37:25;100969.81;;;28.88;59.99
54556;BME280;57291;37.520;15.106;2022-09-02T14:40:07;100964.25;;;28.84;59.98
54556;BME280;57291;37.520;15.106;2022-09-02T14:42:45;100961.03;;;28.86;61.06
54556;BME280;57291;37.520;15.106;2022-09-02T14:45:25;100963.00;;;28.92;60.26
54556;BME280;57291;37.520;15.106;2022-09-02T14:47:53;100960.38;;;28.74;60.48
54556;BME280;57291;37.520;15.106;2022-09-02T14:50:28;100963.91;;;28.79;60.80
54556;BME280;57291;37.520;15.106;2022-09-02T14:53:00;100961.91;;;28.79;61.02
54556;BME280;57291;37.520;15.106;2022-09-02T14:55:45;100976.47;;;28.63;60.91
54556;BME280;57291;37.520;15.106;2022-09-02T14:58:16;100968.09;;;28.60;61.64
54556;BME280;57291;37.520;15.106;2022-09-02T15:00:46;100973.66;;;28.63;61.10
54556;BME280;57291;37.520;15.106;2022-09-02T15:03:14;100985.72;;;28.57;61.43
54556;BME280;57291;37.520;15.106;2022-09-02T15:05:42;100980.97;;;28.50;60.74
54556;BME280;57291;37.520;15.106;2022-09-02T15:08:10;100975.31;;;28.57;60.39
54556;BME280;57291;37.520;15.106;2022-09-02T15:10:39;100983.63;;;28.64;60.91
54556;BME280;57291;37.520;15.106;2022-09-02T15:13:09;100983.69;;;28.57;60.83
54556;BME280;57291;37.520;15.106;2022-09-02T15:15:39;100980.16;;;28.53;61.44
54556;BME280;57291;37.520;15.106;2022-09-02T15:18:06;100989.63;;;28.63;60.91
54556;BME280;57291;37.520;15.106;2022-09-02T15:20:34;100985.34;;;28.51;60.51